sensor_id;sensor_type;location;lat;lon;timestamp;P1;durP1;ratioP1;P2;durP2;ratioP2
40599;SDS011;26309;50.924;4.754;2023-03-11T00:02:20;10.80;;;3.87;;
40599;SDS011;26309;50.924;4.754;2023-03-11T00:04:46;13.83;;;3.93;;
40599;SDS011;26309;50.924;4.754;2023-03-11T00:07:12;9.23;;;3.60;;
40599;SDS011;26309;50.924;4.754;2023-03-11T00:09:38;6.80;;;3.40;;
40599;SDS011;26309;50.924;4.754;2023-03-11T00:12:04;10.77;;;4.00;;
40599;SDS011;26309;50.924;4.754;2023-03-11T00:14:30;10.67;;;4.77;;
40599;SDS011;26309;50.924;4.754;2023-03-11T00:16:56;10.83;;;3.53;;
40599;SDS011;26309;50.924;4.754;2023-03-11T00:19:22;12.23;;;4.67;;
40599;SDS011;26309;50.924;4.754;2023-03-11T00:21:47;11.53;;;3.33;;
40599;SDS011;26309;50.924;4.754;2023-03-11T00:24:14;10.83;;;4.47;;
40599;SDS011;26309;50.924;4.754;2023-03-11T00:26:39;15.20;;;5.13;;
40599;SDS011;26309;50.924;4.754;2023-03-11T00:29:05;12.77;;;4.37;;
40599;SDS011;26309;50.924;4.754;2023-03-11T00:31:31;15.00;;;6.43;;
40599;SDS011;26309;50.924;4.754;2023-03-11T00:33:57;19.13;;;8.70;;
40599;SDS011;26309;50.924;4.754;2023-03-11T00:36:24;14.47;;;7.50;;
40599;SDS011;26309;50.924;4.754;2023-03-11T00:38:55;20.73;;;8.47;;
40599;SDS011;26309;50.924;4.754;2023-03-11T00:41:23;22.33;;;10.47;;
40599;SDS011;26309;50.924;4.754;2023-03-11T00:43:49;20.33;;;10.03;;
40599;SDS011;26309;50.924;4.754;2023-03-11T00:46:15;17.47;;;9.50;;
40599;SDS011;26309;50.924;4.754;2023-03-11T00:48:41;17.67;;;9.03;;
40599;SDS011;26309;50.924;4.754;2023-03-11T00:51:10;22.47;;;9.00;;
40599;SDS011;26309;50.924;4.754;2023-03-11T00:53:39;25.23;;;10.53;;
40599;SDS011;26309;50.924;4.754;2023-03-11T00:56:09;19.20;;;9.53;;
40599;SDS011;26309;50.924;4.754;2023-03-11T00:58:36;25.90;;;10.47;;
40599;SDS011;26309;50.924;4.754;2023-03-11T01:01:13;18.70;;;8.57;;
40599;SDS011;26309;50.924;4.754;2023-03-11T01:03:44;14.50;;;7.67;;
40599;SDS011;26309;50.924;4.754;2023-03-11T01:06:10;20.77;;;9.57;;
40599;SDS011;26309;50.924;4.754;2023-03-11T01:08:36;16.80;;;7.73;;
40599;SDS011;26309;50.924;4.754;2023-03-11T01:11:03;12.77;;;7.60;;
40599;SDS011;26309;50.924;4.754;2023-03-11T01:13:31;16.13;;;7.33;;
40599;SDS011;26309;50.924;4.754;2023-03-11T01:15:58;17.07;;;7.07;;
40599;SDS011;26309;50.924;4.754;2023-03-11T01:18:25;13.57;;;6.23;;
40599;SDS011;26309;50.924;4.754;2023-03-11T01:20:52;18.17;;;6.03;;
40599;SDS011;26309;50.924;4.754;2023-03-11T01:23:18;16.33;;;6.73;;
40599;SDS011;26309;50.924;4.754;2023-03-11T01:25:45;22.13;;;6.80;;
40599;SDS011;26309;50.924;4.754;2023-03-11T01:28:11;15.50;;;5.73;;
40599;SDS011;26309;50.924;4.754;2023-03-11T01:30:38;17.07;;;6.90;;
40599;SDS011;26309;50.924;4.754;2023-03-11T01:33:06;18.63;;;7.23;;
40599;SDS011;26309;50.924;4.754;2023-03-11T01:35:33;9.83;;;5.90;;
40599;SDS011;26309;50.924;4.754;2023-03-11T01:37:59;11.30;;;5.93;;
40599;SDS011;26309;50.924;4.754;2023-03-11T01:40:32;11.43;;;5.97;;
40599;SDS011;26309;50.924;4.754;2023-03-11T01:43:02;15.83;;;6.37;;
40599;SDS011;26309;50.924;4.754;2023-03-11T01:48:06;14.70;;;5.93;;
40599;SDS011;26309;50.924;4.754;2023-03-11T01:50:35;14.17;;;6.73;;
40599;SDS011;26309;50.924;4.754;2023-03-11T01:53:07;13.13;;;6.50;;
40599;SDS011;26309;50.924;4.754;2023-03-11T01:55:35;10.60;;;6.03;;
40599;SDS011;26309;50.924;4.754;2023-03-11T01:58:05;10.83;;;6.23;;
40599;SDS011;26309;50.924;4.754;2023-03-11T02:00:33;18.40;;;6.20;;
40599;SDS011;26309;50.924;4.754;2023-03-11T02:03:01;12.53;;;5.53;;
40599;SDS011;26309;50.924;4.754;2023-03-11T02:05:35;20.60;;;5.47;;
40599;SDS011;26309;50.924;4.754;2023-03-11T02:08:01;14.80;;;6.10;;
40599;SDS011;26309;50.924;4.754;2023-03-11T02:10:28;13.07;;;5.90;;
40599;SDS011;26309;50.924;4.754;2023-03-11T02:12:55;15.67;;;5.47;;
40599;SDS011;26309;50.924;4.754;2023-03-11T02:15:21;10.20;;;5.40;;
40599;SDS011;26309;50.924;4.754;2023-03-11T02:17:49;14.53;;;5.83;;
40599;SDS011;26309;50.924;4.754;2023-03-11T02:20:20;10.77;;;5.17;;
40599;SDS011;26309;50.924;4.754;2023-03-11T02:22:47;13.63;;;5.67;;
40599;SDS011;26309;50.924;4.754;2023-03-11T02:27:54;13.77;;;5.27;;
40599;SDS011;26309;50.924;4.754;2023-03-11T02:30:22;11.00;;;4.60;;
40599;SDS011;26309;50.924;4.754;2023-03-11T02:32:50;10.53;;;4.73;;
40599;SDS011;26309;50.924;4.754;2023-03-11T02:35:16;12.73;;;4.40;;
40599;SDS011;26309;50.924;4.754;2023-03-11T02:37:43;10.37;;;5.00;;
40599;SDS011;26309;50.924;4.754;2023-03-11T02:43:00;15.50;;;4.77;;
40599;SDS011;26309;50.924;4.754;2023-03-11T02:45:32;10.30;;;4.20;;
40599;SDS011;26309;50.924;4.754;2023-03-11T02:48:00;11.63;;;4.00;;
40599;SDS011;26309;50.924;4.754;2023-03-11T02:50:27;9.27;;;4.33;;
40599;SDS011;26309;50.924;4.754;2023-03-11T02:52:54;12.60;;;4.47;;
40599;SDS011;26309;50.924;4.754;2023-03-11T02:55:20;12.90;;;4.50;;
40599;SDS011;26309;50.924;4.754;2023-03-11T02:57:46;12.40;;;4.33;;
40599;SDS011;26309;50.924;4.754;2023-03-11T03:00:13;14.40;;;4.27;;
40599;SDS011;26309;50.924;4.754;2023-03-11T03:02:41;9.87;;;4.57;;
40599;SDS011;26309;50.924;4.754;2023-03-11T03:05:08;12.20;;;4.90;;
40599;SDS011;26309;50.924;4.754;2023-03-11T03:07:35;12.67;;;4.67;;
40599;SDS011;26309;50.924;4.754;2023-03-11T03:10:08;13.80;;;4.53;;
40599;SDS011;26309;50.924;4.754;2023-03-11T03:12:34;14.93;;;4.70;;
40599;SDS011;26309;50.924;4.754;2023-03-11T03:15:00;11.57;;;4.73;;
40599;SDS011;26309;50.924;4.754;2023-03-11T03:17:26;8.50;;;4.57;;
40599;SDS011;26309;50.924;4.754;2023-03-11T03:19:52;14.20;;;4.80;;
40599;SDS011;26309;50.924;4.754;2023-03-11T03:22:17;12.40;;;4.60;;
40599;SDS011;26309;50.924;4.754;2023-03-11T03:24:43;11.47;;;4.63;;
40599;SDS011;26309;50.924;4.754;2023-03-11T03:27:09;10.60;;;4.90;;
40599;SDS011;26309;50.924;4.754;2023-03-11T03:29:35;17.13;;;4.60;;
40599;SDS011;26309;50.924;4.754;2023-03-11T03:32:01;16.83;;;5.27;;
40599;SDS011;26309;50.924;4.754;2023-03-11T03:34:27;12.03;;;4.90;;
40599;SDS011;26309;50.924;4.754;2023-03-11T03:36:52;11.93;;;5.30;;
40599;SDS011;26309;50.924;4.754;2023-03-11T03:39:19;15.90;;;5.27;;
40599;SDS011;26309;50.924;4.754;2023-03-11T03:41:45;13.93;;;5.10;;
40599;SDS011;26309;50.924;4.754;2023-03-11T03:44:11;7.07;;;3.97;;
40599;SDS011;26309;50.924;4.754;2023-03-11T03:46:37;16.63;;;5.17;;
40599;SDS011;26309;50.924;4.754;2023-03-11T03:49:06;9.37;;;4.43;;
40599;SDS011;26309;50.924;4.754;2023-03-11T03:51:32;11.00;;;4.97;;
40599;SDS011;26309;50.924;4.754;2023-03-11T03:53:58;12.93;;;4.90;;
40599;SDS011;26309;50.924;4.754;2023-03-11T03:56:24;8.90;;;4.80;;
40599;SDS011;26309;50.924;4.754;2023-03-11T03:58:50;12.83;;;5.60;;
40599;SDS011;26309;50.924;4.754;2023-03-11T04:01:16;20.10;;;5.40;;
40599;SDS011;26309;50.924;4.754;2023-03-11T04:03:41;17.30;;;5.53;;
40599;SDS011;26309;50.924;4.754;2023-03-11T04:06:09;15.70;;;5.40;;
40599;SDS011;26309;50.924;4.754;2023-03-11T04:08:40;7.63;;;4.83;;
40599;SDS011;26309;50.924;4.754;2023-03-11T04:11:06;9.10;;;5.33;;
40599;SDS011;26309;50.924;4.754;2023-03-11T04:13:32;13.23;;;5.40;;
40599;SDS011;26309;50.924;4.754;2023-03-11T04:15:58;11.60;;;5.93;;
40599;SDS011;26309;50.924;4.754;2023-03-11T04:18:24;17.20;;;5.60;;
40599;SDS011;26309;50.924;4.754;2023-03-11T04:20:49;12.17;;;4.93;;
40599;SDS011;26309;50.924;4.754;2023-03-11T04:23:15;16.03;;;5.60;;
40599;SDS011;26309;50.924;4.754;2023-03-11T04:25:41;13.00;;;5.00;;
40599;SDS011;26309;50.924;4.754;2023-03-11T04:28:07;14.30;;;6.13;;
40599;SDS011;26309;50.924;4.754;2023-03-11T04:30:33;12.77;;;5.70;;
40599;SDS011;26309;50.924;4.754;2023-03-11T04:32:59;12.13;;;5.30;;
40599;SDS011;26309;50.924;4.754;2023-03-11T04:35:24;9.13;;;5.43;;
40599;SDS011;26309;50.924;4.754;2023-03-11T04:37:51;15.57;;;6.17;;
40599;SDS011;26309;50.924;4.754;2023-03-11T04:40:16;19.27;;;6.30;;
40599;SDS011;26309;50.924;4.754;2023-03-11T04:42:42;14.93;;;5.93;;
40599;SDS011;26309;50.924;4.754;2023-03-11T04:45:08;14.67;;;6.10;;
40599;SDS011;26309;50.924;4.754;2023-03-11T04:47:35;12.80;;;6.33;;
40599;SDS011;26309;50.924;4.754;2023-03-11T04:50:01;16.87;;;6.37;;
40599;SDS011;26309;50.924;4.754;2023-03-11T04:52:28;16.67;;;6.83;;
40599;SDS011;26309;50.924;4.754;2023-03-11T04:54:53;22.27;;;6.80;;
40599;SDS011;26309;50.924;4.754;2023-03-11T04:57:19;13.90;;;5.57;;
40599;SDS011;26309;50.924;4.754;2023-03-11T04:59:45;18.83;;;6.90;;
40599;SDS011;26309;50.924;4.754;2023-03-11T05:02:11;18.03;;;6.60;;
40599;SDS011;26309;50.924;4.754;2023-03-11T05:04:37;23.37;;;7.20;;
40599;SDS011;26309;50.924;4.754;2023-03-11T05:07:03;10.93;;;6.93;;
40599;SDS011;26309;50.924;4.754;2023-03-11T05:09:29;14.53;;;6.47;;
40599;SDS011;26309;50.924;4.754;2023-03-11T05:11:54;18.67;;;6.97;;
40599;SDS011;26309;50.924;4.754;2023-03-11T05:14:20;18.10;;;6.10;;
40599;SDS011;26309;50.924;4.754;2023-03-11T05:16:46;11.80;;;6.43;;
40599;SDS011;26309;50.924;4.754;2023-03-11T05:19:12;13.83;;;6.73;;
40599;SDS011;26309;50.924;4.754;2023-03-11T05:21:58;20.60;;;6.63;;
40599;SDS011;26309;50.924;4.754;2023-03-11T05:24:24;16.57;;;6.23;;
40599;SDS011;26309;50.924;4.754;2023-03-11T05:26:50;13.93;;;6.07;;
40599;SDS011;26309;50.924;4.754;2023-03-11T05:29:19;16.37;;;6.07;;
40599;SDS011;26309;50.924;4.754;2023-03-11T05:31:47;20.23;;;6.67;;
40599;SDS011;26309;50.924;4.754;2023-03-11T05:34:13;17.80;;;6.37;;
40599;SDS011;26309;50.924;4.754;2023-03-11T05:36:40;15.53;;;6.77;;
40599;SDS011;26309;50.924;4.754;2023-03-11T05:39:05;12.57;;;6.60;;
40599;SDS011;26309;50.924;4.754;2023-03-11T05:41:31;21.20;;;7.63;;
40599;SDS011;26309;50.924;4.754;2023-03-11T05:44:01;17.30;;;7.97;;
40599;SDS011;26309;50.924;4.754;2023-03-11T05:46:27;22.33;;;7.80;;
40599;SDS011;26309;50.924;4.754;2023-03-11T05:48:54;16.83;;;7.13;;
40599;SDS011;26309;50.924;4.754;2023-03-11T05:51:20;22.90;;;7.37;;
40599;SDS011;26309;50.924;4.754;2023-03-11T05:53:46;12.20;;;6.53;;
40599;SDS011;26309;50.924;4.754;2023-03-11T05:56:17;11.80;;;6.27;;
40599;SDS011;26309;50.924;4.754;2023-03-11T05:58:44;18.93;;;6.90;;
40599;SDS011;26309;50.924;4.754;2023-03-11T06:01:11;12.97;;;7.03;;
40599;SDS011;26309;50.924;4.754;2023-03-11T06:03:39;9.50;;;6.47;;
40599;SDS011;26309;50.924;4.754;2023-03-11T06:06:06;18.07;;;6.80;;
40599;SDS011;26309;50.924;4.754;2023-03-11T06:08:33;13.83;;;6.80;;
40599;SDS011;26309;50.924;4.754;2023-03-11T06:11:06;16.40;;;7.50;;
40599;SDS011;26309;50.924;4.754;2023-03-11T06:13:34;12.77;;;6.63;;
40599;SDS011;26309;50.924;4.754;2023-03-11T06:16:01;13.27;;;7.23;;
40599;SDS011;26309;50.924;4.754;2023-03-11T06:18:27;13.60;;;7.23;;
40599;SDS011;26309;50.924;4.754;2023-03-11T06:20:53;13.63;;;7.37;;
40599;SDS011;26309;50.924;4.754;2023-03-11T06:23:25;18.00;;;7.77;;
40599;SDS011;26309;50.924;4.754;2023-03-11T06:25:58;17.40;;;7.10;;
40599;SDS011;26309;50.924;4.754;2023-03-11T06:28:30;11.90;;;7.17;;
40599;SDS011;26309;50.924;4.754;2023-03-11T06:31:05;16.57;;;7.00;;
40599;SDS011;26309;50.924;4.754;2023-03-11T06:33:32;14.00;;;7.80;;
40599;SDS011;26309;50.924;4.754;2023-03-11T06:35:59;17.70;;;8.00;;
40599;SDS011;26309;50.924;4.754;2023-03-11T06:38:26;12.80;;;6.87;;
40599;SDS011;26309;50.924;4.754;2023-03-11T06:40:52;15.33;;;7.40;;
40599;SDS011;26309;50.924;4.754;2023-03-11T06:43:20;15.57;;;7.57;;
40599;SDS011;26309;50.924;4.754;2023-03-11T06:45:47;15.80;;;7.10;;
40599;SDS011;26309;50.924;4.754;2023-03-11T06:48:12;21.33;;;8.37;;
40599;SDS011;26309;50.924;4.754;2023-03-11T06:50:38;17.47;;;8.37;;
40599;SDS011;26309;50.924;4.754;2023-03-11T06:53:04;23.27;;;9.43;;
40599;SDS011;26309;50.924;4.754;2023-03-11T06:55:32;15.80;;;7.77;;
40599;SDS011;26309;50.924;4.754;2023-03-11T06:57:58;16.87;;;8.40;;
40599;SDS011;26309;50.924;4.754;2023-03-11T07:00:24;16.00;;;7.70;;
40599;SDS011;26309;50.924;4.754;2023-03-11T07:02:50;23.30;;;8.90;;
40599;SDS011;26309;50.924;4.754;2023-03-11T07:05:17;23.63;;;8.20;;
40599;SDS011;26309;50.924;4.754;2023-03-11T07:07:43;24.47;;;9.23;;
40599;SDS011;26309;50.924;4.754;2023-03-11T07:10:09;24.90;;;11.30;;
40599;SDS011;26309;50.924;4.754;2023-03-11T07:12:35;20.50;;;10.83;;
40599;SDS011;26309;50.924;4.754;2023-03-11T07:15:01;20.57;;;10.27;;
40599;SDS011;26309;50.924;4.754;2023-03-11T07:17:27;21.83;;;10.47;;
40599;SDS011;26309;50.924;4.754;2023-03-11T07:19:53;20.07;;;9.80;;
40599;SDS011;26309;50.924;4.754;2023-03-11T07:22:19;17.77;;;9.40;;
40599;SDS011;26309;50.924;4.754;2023-03-11T07:24:46;28.73;;;12.17;;
40599;SDS011;26309;50.924;4.754;2023-03-11T07:27:13;24.17;;;12.43;;
40599;SDS011;26309;50.924;4.754;2023-03-11T07:29:39;21.07;;;10.57;;
40599;SDS011;26309;50.924;4.754;2023-03-11T07:32:08;21.57;;;10.73;;
40599;SDS011;26309;50.924;4.754;2023-03-11T07:34:36;22.87;;;11.03;;
40599;SDS011;26309;50.924;4.754;2023-03-11T07:37:02;24.33;;;10.90;;
40599;SDS011;26309;50.924;4.754;2023-03-11T07:39:28;19.20;;;11.80;;
40599;SDS011;26309;50.924;4.754;2023-03-11T07:41:54;19.87;;;11.53;;
40599;SDS011;26309;50.924;4.754;2023-03-11T07:44:20;18.73;;;10.67;;
40599;SDS011;26309;50.924;4.754;2023-03-11T07:46:45;21.23;;;10.47;;
40599;SDS011;26309;50.924;4.754;2023-03-11T07:49:11;16.23;;;9.83;;
40599;SDS011;26309;50.924;4.754;2023-03-11T07:51:38;19.00;;;10.73;;
40599;SDS011;26309;50.924;4.754;2023-03-11T07:54:08;15.57;;;9.70;;
40599;SDS011;26309;50.924;4.754;2023-03-11T07:56:35;17.80;;;9.17;;
40599;SDS011;26309;50.924;4.754;2023-03-11T07:59:02;16.67;;;9.10;;
40599;SDS011;26309;50.924;4.754;2023-03-11T08:01:30;16.60;;;8.37;;
40599;SDS011;26309;50.924;4.754;2023-03-11T08:04:00;17.23;;;9.10;;
40599;SDS011;26309;50.924;4.754;2023-03-11T08:06:31;14.63;;;7.70;;
40599;SDS011;26309;50.924;4.754;2023-03-11T08:08:59;21.57;;;8.97;;
40599;SDS011;26309;50.924;4.754;2023-03-11T08:11:26;16.90;;;8.03;;
40599;SDS011;26309;50.924;4.754;2023-03-11T08:13:52;18.10;;;8.23;;
40599;SDS011;26309;50.924;4.754;2023-03-11T08:16:19;19.80;;;8.33;;
40599;SDS011;26309;50.924;4.754;2023-03-11T08:18:46;15.37;;;7.67;;
40599;SDS011;26309;50.924;4.754;2023-03-11T08:21:14;13.83;;;7.23;;
40599;SDS011;26309;50.924;4.754;2023-03-11T08:23:46;21.13;;;7.50;;
40599;SDS011;26309;50.924;4.754;2023-03-11T08:26:16;19.80;;;6.80;;
40599;SDS011;26309;50.924;4.754;2023-03-11T08:28:44;16.83;;;7.20;;
40599;SDS011;26309;50.924;4.754;2023-03-11T08:31:14;17.80;;;6.57;;
40599;SDS011;26309;50.924;4.754;2023-03-11T08:33:42;14.10;;;6.20;;
40599;SDS011;26309;50.924;4.754;2023-03-11T08:36:10;10.97;;;5.80;;
40599;SDS011;26309;50.924;4.754;2023-03-11T08:38:36;14.00;;;6.17;;
40599;SDS011;26309;50.924;4.754;2023-03-11T08:41:02;11.97;;;5.77;;
40599;SDS011;26309;50.924;4.754;2023-03-11T08:43:28;8.63;;;5.83;;
40599;SDS011;26309;50.924;4.754;2023-03-11T08:45:54;16.83;;;6.57;;
40599;SDS011;26309;50.924;4.754;2023-03-11T08:48:20;13.53;;;5.80;;
40599;SDS011;26309;50.924;4.754;2023-03-11T08:50:47;12.93;;;5.70;;
40599;SDS011;26309;50.924;4.754;2023-03-11T08:53:13;11.13;;;5.03;;
40599;SDS011;26309;50.924;4.754;2023-03-11T08:55:39;14.93;;;5.73;;
40599;SDS011;26309;50.924;4.754;2023-03-11T08:58:04;13.93;;;5.03;;
40599;SDS011;26309;50.924;4.754;2023-03-11T09:00:31;10.70;;;5.07;;
40599;SDS011;26309;50.924;4.754;2023-03-11T09:02:57;11.20;;;5.13;;
40599;SDS011;26309;50.924;4.754;2023-03-11T09:05:26;8.57;;;4.73;;
40599;SDS011;26309;50.924;4.754;2023-03-11T09:07:52;8.20;;;4.40;;
40599;SDS011;26309;50.924;4.754;2023-03-11T09:10:18;9.00;;;4.20;;
40599;SDS011;26309;50.924;4.754;2023-03-11T09:12:44;13.20;;;3.23;;
40599;SDS011;26309;50.924;4.754;2023-03-11T09:15:09;10.07;;;3.90;;
40599;SDS011;26309;50.924;4.754;2023-03-11T09:17:35;9.03;;;3.87;;
40599;SDS011;26309;50.924;4.754;2023-03-11T09:20:02;7.83;;;2.40;;
40599;SDS011;26309;50.924;4.754;2023-03-11T09:22:28;10.33;;;3.07;;
40599;SDS011;26309;50.924;4.754;2023-03-11T09:24:55;7.50;;;2.50;;
40599;SDS011;26309;50.924;4.754;2023-03-11T09:27:22;11.03;;;2.80;;
40599;SDS011;26309;50.924;4.754;2023-03-11T09:29:47;7.30;;;2.90;;
40599;SDS011;26309;50.924;4.754;2023-03-11T09:32:14;10.13;;;3.03;;
40599;SDS011;26309;50.924;4.754;2023-03-11T09:34:40;14.53;;;2.77;;
40599;SDS011;26309;50.924;4.754;2023-03-11T09:37:06;7.73;;;2.30;;
40599;SDS011;26309;50.924;4.754;2023-03-11T09:39:32;9.43;;;2.60;;
40599;SDS011;26309;50.924;4.754;2023-03-11T09:42:02;7.50;;;1.77;;
40599;SDS011;26309;50.924;4.754;2023-03-11T09:44:48;10.00;;;1.70;;
40599;SDS011;26309;50.924;4.754;2023-03-11T09:47:30;7.03;;;1.70;;
40599;SDS011;26309;50.924;4.754;2023-03-11T09:50:10;9.67;;;2.10;;
40599;SDS011;26309;50.924;4.754;2023-03-11T09:52:55;7.63;;;1.90;;
40599;SDS011;26309;50.924;4.754;2023-03-11T10:03:49;8.90;;;2.17;;
40599;SDS011;26309;50.924;4.754;2023-03-11T10:06:19;6.03;;;1.80;;
40599;SDS011;26309;50.924;4.754;2023-03-11T10:17:14;4.57;;;1.50;;
40599;SDS011;26309;50.924;4.754;2023-03-11T10:21:10;5.37;;;1.47;;
40599;SDS011;26309;50.924;4.754;2023-03-11T10:26:20;12.13;;;1.80;;
40599;SDS011;26309;50.924;4.754;2023-03-11T10:28:55;7.53;;;1.70;;
40599;SDS011;26309;50.924;4.754;2023-03-11T10:31:53;6.27;;;1.83;;
40599;SDS011;26309;50.924;4.754;2023-03-11T10:34:36;4.67;;;1.40;;
40599;SDS011;26309;50.924;4.754;2023-03-11T10:42:18;4.77;;;1.70;;
40599;SDS011;26309;50.924;4.754;2023-03-11T10:44:51;6.10;;;1.80;;
40599;SDS011;26309;50.924;4.754;2023-03-11T10:47:21;14.23;;;1.90;;
40599;SDS011;26309;50.924;4.754;2023-03-11T10:49:49;7.63;;;1.97;;
40599;SDS011;26309;50.924;4.754;2023-03-11T10:52:19;5.13;;;1.57;;
40599;SDS011;26309;50.924;4.754;2023-03-11T10:54:45;7.90;;;2.07;;
40599;SDS011;26309;50.924;4.754;2023-03-11T10:59:46;9.13;;;1.87;;
40599;SDS011;26309;50.924;4.754;2023-03-11T11:05:07;3.73;;;1.53;;
40599;SDS011;26309;50.924;4.754;2023-03-11T11:07:49;4.77;;;1.70;;
40599;SDS011;26309;50.924;4.754;2023-03-11T11:10:18;10.60;;;2.10;;
40599;SDS011;26309;50.924;4.754;2023-03-11T11:17:59;8.93;;;1.77;;
40599;SDS011;26309;50.924;4.754;2023-03-11T11:20:51;10.73;;;2.03;;
40599;SDS011;26309;50.924;4.754;2023-03-11T11:26:00;9.07;;;1.83;;
40599;SDS011;26309;50.924;4.754;2023-03-11T11:28:29;6.93;;;1.63;;
40599;SDS011;26309;50.924;4.754;2023-03-11T11:30:57;5.80;;;1.60;;
40599;SDS011;26309;50.924;4.754;2023-03-11T11:36:20;6.67;;;1.60;;
40599;SDS011;26309;50.924;4.754;2023-03-11T11:38:52;4.03;;;1.43;;
40599;SDS011;26309;50.924;4.754;2023-03-11T11:41:20;9.90;;;1.80;;
40599;SDS011;26309;50.924;4.754;2023-03-11T11:51:43;6.47;;;1.80;;
40599;SDS011;26309;50.924;4.754;2023-03-11T11:54:16;6.70;;;1.77;;
40599;SDS011;26309;50.924;4.754;2023-03-11T11:56:48;5.80;;;2.00;;
40599;SDS011;26309;50.924;4.754;2023-03-11T11:59:15;5.73;;;1.70;;
40599;SDS011;26309;50.924;4.754;2023-03-11T12:21:07;4.72;;;1.83;;
40599;SDS011;26309;50.924;4.754;2023-03-11T12:26:22;13.97;;;2.20;;
40599;SDS011;26309;50.924;4.754;2023-03-11T12:28:56;4.47;;;1.88;;
40599;SDS011;26309;50.924;4.754;2023-03-11T12:31:26;8.52;;;2.15;;
40599;SDS011;26309;50.924;4.754;2023-03-11T12:33:59;7.73;;;1.70;;
40599;SDS011;26309;50.924;4.754;2023-03-11T12:36:28;5.22;;;1.90;;
40599;SDS011;26309;50.924;4.754;2023-03-11T12:39:00;4.03;;;2.00;;
40599;SDS011;26309;50.924;4.754;2023-03-11T12:41:36;5.80;;;1.90;;
40599;SDS011;26309;50.924;4.754;2023-03-11T12:44:22;5.93;;;1.70;;
40599;SDS011;26309;50.924;4.754;2023-03-11T12:49:25;6.85;;;1.67;;
40599;SDS011;26309;50.924;4.754;2023-03-11T12:52:01;6.97;;;1.77;;
40599;SDS011;26309;50.924;4.754;2023-03-11T12:54:40;5.50;;;1.80;;
40599;SDS011;26309;50.924;4.754;2023-03-11T13:08:44;4.97;;;1.77;;
40599;SDS011;26309;50.924;4.754;2023-03-11T13:13:51;8.40;;;1.90;;
40599;SDS011;26309;50.924;4.754;2023-03-11T13:18:46;6.63;;;1.73;;
40599;SDS011;26309;50.924;4.754;2023-03-11T13:24:39;10.33;;;2.17;;
40599;SDS011;26309;50.924;4.754;2023-03-11T13:26:44;5.20;;;1.70;;
40599;SDS011;26309;50.924;4.754;2023-03-11T13:35:04;5.93;;;2.20;;
40599;SDS011;26309;50.924;4.754;2023-03-11T13:43:01;7.10;;;1.73;;
40599;SDS011;26309;50.924;4.754;2023-03-11T13:45:33;5.53;;;1.77;;
40599;SDS011;26309;50.924;4.754;2023-03-11T13:50:44;6.20;;;1.90;;
40599;SDS011;26309;50.924;4.754;2023-03-11T13:53:28;8.10;;;1.80;;
40599;SDS011;26309;50.924;4.754;2023-03-11T13:55:55;5.10;;;1.70;;
40599;SDS011;26309;50.924;4.754;2023-03-11T13:58:22;8.93;;;2.00;;
40599;SDS011;26309;50.924;4.754;2023-03-11T14:00:56;6.80;;;2.37;;
40599;SDS011;26309;50.924;4.754;2023-03-11T14:03:24;5.73;;;1.87;;
40599;SDS011;26309;50.924;4.754;2023-03-11T14:05:57;6.67;;;1.90;;
40599;SDS011;26309;50.924;4.754;2023-03-11T14:08:30;8.53;;;1.93;;
40599;SDS011;26309;50.924;4.754;2023-03-11T14:11:15;4.53;;;1.50;;
40599;SDS011;26309;50.924;4.754;2023-03-11T14:13:42;4.80;;;1.80;;
40599;SDS011;26309;50.924;4.754;2023-03-11T14:19:13;7.97;;;1.70;;
40599;SDS011;26309;50.924;4.754;2023-03-11T14:21:48;7.60;;;1.90;;
40599;SDS011;26309;50.924;4.754;2023-03-11T14:24:26;5.67;;;1.80;;
40599;SDS011;26309;50.924;4.754;2023-03-11T14:26:54;5.07;;;1.57;;
40599;SDS011;26309;50.924;4.754;2023-03-11T14:29:35;4.37;;;1.57;;
40599;SDS011;26309;50.924;4.754;2023-03-11T14:32:16;3.60;;;1.60;;
40599;SDS011;26309;50.924;4.754;2023-03-11T14:34:48;5.17;;;1.40;;
40599;SDS011;26309;50.924;4.754;2023-03-11T14:37:24;5.33;;;1.53;;
40599;SDS011;26309;50.924;4.754;2023-03-11T14:40:01;4.22;;;1.50;;
40599;SDS011;26309;50.924;4.754;2023-03-11T14:42:30;7.05;;;1.55;;
40599;SDS011;26309;50.924;4.754;2023-03-11T14:45:05;6.53;;;1.47;;
40599;SDS011;26309;50.924;4.754;2023-03-11T14:47:37;3.95;;;1.50;;
40599;SDS011;26309;50.924;4.754;2023-03-11T14:50:15;3.72;;;1.60;;
40599;SDS011;26309;50.924;4.754;2023-03-11T14:52:51;6.43;;;1.60;;
40599;SDS011;26309;50.924;4.754;2023-03-11T14:55:43;3.10;;;1.33;;
40599;SDS011;26309;50.924;4.754;2023-03-11T15:00:49;4.13;;;1.42;;
40599;SDS011;26309;50.924;4.754;2023-03-11T15:03:29;4.70;;;1.40;;
40599;SDS011;26309;50.924;4.754;2023-03-11T15:08:33;4.32;;;1.40;;
40599;SDS011;26309;50.924;4.754;2023-03-11T15:13:35;5.57;;;1.73;;
40599;SDS011;26309;50.924;4.754;2023-03-11T15:16:04;7.03;;;1.42;;
40599;SDS011;26309;50.924;4.754;2023-03-11T15:18:33;5.75;;;1.30;;
40599;SDS011;26309;50.924;4.754;2023-03-11T15:21:45;3.67;;;1.35;;
40599;SDS011;26309;50.924;4.754;2023-03-11T15:24:01;5.25;;;1.50;;
40599;SDS011;26309;50.924;4.754;2023-03-11T15:26:34;4.65;;;1.40;;
40599;SDS011;26309;50.924;4.754;2023-03-11T15:29:13;2.50;;;1.48;;
40599;SDS011;26309;50.924;4.754;2023-03-11T15:31:41;7.95;;;1.40;;
40599;SDS011;26309;50.924;4.754;2023-03-11T15:41:42;4.40;;;1.40;;
40599;SDS011;26309;50.924;4.754;2023-03-11T15:47:01;4.78;;;1.65;;
40599;SDS011;26309;50.924;4.754;2023-03-11T15:49:30;4.20;;;1.70;;
40599;SDS011;26309;50.924;4.754;2023-03-11T15:51:59;6.00;;;1.80;;
40599;SDS011;26309;50.924;4.754;2023-03-11T15:54:26;5.88;;;1.70;;
40599;SDS011;26309;50.924;4.754;2023-03-11T15:56:52;7.10;;;2.10;;
40599;SDS011;26309;50.924;4.754;2023-03-11T15:59:19;4.57;;;2.00;;
40599;SDS011;26309;50.924;4.754;2023-03-11T16:01:45;4.87;;;1.63;;
40599;SDS011;26309;50.924;4.754;2023-03-11T16:04:15;7.07;;;1.55;;
40599;SDS011;26309;50.924;4.754;2023-03-11T16:06:42;5.83;;;1.77;;
40599;SDS011;26309;50.924;4.754;2023-03-11T16:09:10;3.23;;;1.83;;
40599;SDS011;26309;50.924;4.754;2023-03-11T16:11:37;6.90;;;2.10;;
40599;SDS011;26309;50.924;4.754;2023-03-11T16:14:04;5.17;;;1.73;;
40599;SDS011;26309;50.924;4.754;2023-03-11T16:16:32;4.50;;;1.80;;
40599;SDS011;26309;50.924;4.754;2023-03-11T16:18:57;4.77;;;1.80;;
40599;SDS011;26309;50.924;4.754;2023-03-11T16:21:24;6.07;;;1.60;;
40599;SDS011;26309;50.924;4.754;2023-03-11T16:23:57;6.57;;;2.00;;
40599;SDS011;26309;50.924;4.754;2023-03-11T16:26:23;9.47;;;1.87;;
40599;SDS011;26309;50.924;4.754;2023-03-11T16:28:49;4.30;;;1.57;;
40599;SDS011;26309;50.924;4.754;2023-03-11T16:31:16;5.38;;;1.98;;
40599;SDS011;26309;50.924;4.754;2023-03-11T16:33:42;4.53;;;2.20;;
40599;SDS011;26309;50.924;4.754;2023-03-11T16:36:09;5.22;;;1.52;;
40599;SDS011;26309;50.924;4.754;2023-03-11T16:38:41;6.03;;;1.90;;
40599;SDS011;26309;50.924;4.754;2023-03-11T16:41:17;6.17;;;1.90;;
40599;SDS011;26309;50.924;4.754;2023-03-11T16:43:42;11.20;;;1.85;;
40599;SDS011;26309;50.924;4.754;2023-03-11T16:46:08;6.33;;;1.90;;
40599;SDS011;26309;50.924;4.754;2023-03-11T16:48:34;7.50;;;2.10;;
40599;SDS011;26309;50.924;4.754;2023-03-11T16:51:00;5.25;;;1.95;;
40599;SDS011;26309;50.924;4.754;2023-03-11T16:53:26;8.37;;;2.13;;
40599;SDS011;26309;50.924;4.754;2023-03-11T16:55:52;7.13;;;2.03;;
40599;SDS011;26309;50.924;4.754;2023-03-11T16:58:18;9.13;;;2.67;;
40599;SDS011;26309;50.924;4.754;2023-03-11T17:00:45;7.57;;;3.10;;
40599;SDS011;26309;50.924;4.754;2023-03-11T17:03:12;9.13;;;2.87;;
40599;SDS011;26309;50.924;4.754;2023-03-11T17:05:38;7.17;;;2.93;;